Time;durP1;ratioP1;P1;durP2;ratioP2;P2;SDS_P1;SDS_P2;PMS_P1;PMS_P2;Temp;Humidity;BMP_temperature;BMP_pressure;BME280_temperature;BME280_humidity;BME280_pressure;Samples;Min_cycle;Max_cycle;Signal;HPM_P1;HPM_P2
2020/12/12 00:01:21;;;;;;;65.90;42.33;;;;;;;4.67;80.74;93455.97;1810758;79;21151;-53
2020/12/12 00:03:50;;;;;;;70.97;42.20;;;;;;;4.70;80.80;93457.80;1810817;79;21136;-54
2020/12/12 00:06:23;;;;;;;73.87;43.75;;;;;;;4.71;80.53;93457.38;1810547;78;21358;-53
2020/12/12 00:08:51;;;;;;;58.83;38.98;;;;;;;4.67;80.49;93460.83;1810825;78;21489;-53
2020/12/12 00:11:21;;;;;;;54.35;36.48;;;;;;;4.69;80.65;93455.70;1810769;78;21123;-52
2020/12/12 00:13:49;;;;;;;53.10;35.73;;;;;;;4.69;80.51;93457.06;1810961;79;21576;-52
2020/12/12 00:16:18;;;;;;;57.88;36.93;;;;;;;4.65;80.35;93452.34;1810861;78;21115;-54
2020/12/12 00:18:48;;;;;;;54.77;35.88;;;;;;;4.60;80.56;93459.69;1810656;79;21335;-53
2020/12/12 00:21:21;;;;;;;53.30;34.20;;;;;;;4.60;80.44;93453.49;1810737;78;21148;-51
2020/12/12 00:23:50;;;;;;;;;;;;;;;4.58;80.41;93453.17;1813503;78;21592;-54
2020/12/12 00:26:21;;;;;;;53.08;34.05;;;;;;;4.57;80.66;93463.30;1810770;79;20504;-53
2020/12/12 00:28:49;;;;;;;52.60;33.70;;;;;;;4.61;80.79;93457.12;1810683;77;21548;-51
2020/12/12 00:31:18;;;;;;;52.27;33.83;;;;;;;4.61;80.45;93461.20;1810822;78;22118;-53
2020/12/12 00:33:47;;;;;;;45.40;32.17;;;;;;;4.57;80.32;93463.91;1810848;79;21619;-53
2020/12/12 00:36:17;;;;;;;49.67;32.93;;;;;;;4.53;80.42;93460.52;1809959;78;21191;-53
2020/12/12 00:38:45;;;;;;;45.35;31.05;;;;;;;4.51;80.44;93457.48;1812391;79;21187;-51
2020/12/12 00:41:14;;;;;;;45.17;30.08;;;;;;;4.53;80.50;93460.52;1815639;79;21068;-53
2020/12/12 00:43:42;;;;;;;49.25;32.35;;;;;;;4.59;80.79;93456.05;1815606;79;21437;-51
2020/12/12 00:46:12;;;;;;;51.55;33.67;;;;;;;4.65;80.61;93456.42;1815660;79;21113;-53
2020/12/12 00:48:41;;;;;;;45.33;32.93;;;;;;;4.65;80.24;93457.78;1815536;78;21129;-52
2020/12/12 00:51:09;;;;;;;46.83;29.85;;;;;;;4.59;80.18;93454.08;1815514;79;21141;-52
2020/12/12 00:53:39;;;;;;;38.40;27.93;;;;;;;4.57;80.27;93447.57;1815568;79;21121;-52
2020/12/12 00:56:07;;;;;;;39.75;27.60;;;;;;;4.53;80.15;93456.44;1815580;79;22328;-52
2020/12/12 00:58:36;;;;;;;37.35;26.65;;;;;;;4.46;80.21;93449.26;1815502;78;21053;-51
2020/12/12 01:01:04;;;;;;;41.50;29.85;;;;;;;4.40;80.44;93444.22;1815576;78;21207;-50
2020/12/12 01:03:34;;;;;;;42.45;29.05;;;;;;;4.37;80.63;93443.73;1815523;78;21074;-50
2020/12/12 01:06:03;;;;;;;38.38;28.55;;;;;;;4.37;80.74;93445.10;1815628;78;21053;-52
2020/12/12 01:08:32;;;;;;;40.03;27.45;;;;;;;4.37;80.83;93457.34;1815474;78;21173;-52
2020/12/12 01:11:00;;;;;;;43.00;29.75;;;;;;;4.43;80.86;93448.78;1815586;79;21644;-51
2020/12/12 01:13:29;;;;;;;43.10;31.85;;;;;;;4.45;80.75;93445.63;1815555;79;21528;-52
2020/12/12 01:15:57;;;;;;;43.92;28.50;;;;;;;4.44;80.55;93446.83;1815526;79;21613;-55
2020/12/12 01:18:25;;;;;;;49.00;32.95;;;;;;;4.38;80.54;93443.90;1815604;79;21486;-52
2020/12/12 01:20:54;;;;;;;53.25;32.67;;;;;;;4.32;80.75;93442.16;1815612;79;23531;-52
2020/12/12 01:23:22;;;;;;;59.33;35.85;;;;;;;4.35;81.11;93444.00;1815649;79;21497;-51
2020/12/12 01:25:51;;;;;;;62.17;36.40;;;;;;;4.44;81.09;93443.49;1815586;79;21085;-54
2020/12/12 01:28:21;;;;;;;63.95;37.73;;;;;;;4.54;80.91;93441.03;1815470;79;21549;-53
2020/12/12 01:30:52;;;;;;;60.80;36.33;;;;;;;4.59;80.75;93444.55;1815458;78;21172;-53
2020/12/12 01:33:24;;;;;;;76.28;38.83;;;;;;;4.59;80.44;93448.63;1815591;78;21189;-52
2020/12/12 01:35:53;;;;;;;;;;;;;;;4.54;80.24;93443.75;1818151;79;21195;-52
2020/12/12 01:38:21;;;;;;;77.15;40.55;;;;;;;4.43;80.35;93438.50;1815402;79;20236;-55
2020/12/12 01:40:55;;;;;;;81.92;43.40;;;;;;;4.41;80.78;93443.02;1815418;78;21124;-55
2020/12/12 01:43:23;;;;;;;68.35;39.33;;;;;;;4.42;80.42;93447.26;1815716;79;21140;-53
2020/12/12 01:45:52;;;;;;;65.37;38.13;;;;;;;4.38;80.40;93454.05;1815702;78;22073;-51
2020/12/12 01:48:21;;;;;;;59.75;36.33;;;;;;;4.31;80.50;93442.78;1815426;79;21577;-53
2020/12/12 01:50:49;;;;;;;59.45;34.90;;;;;;;4.23;80.56;93444.20;1815532;79;21132;-52
2020/12/12 01:53:19;;;;;;;64.55;35.40;;;;;;;4.15;80.78;93447.00;1815634;79;21560;-52
2020/12/12 01:55:48;;;;;;;69.58;37.88;;;;;;;4.07;80.95;93436.16;1815635;79;21664;-53
2020/12/12 01:58:16;;;;;;;57.90;35.92;;;;;;;4.06;81.38;93436.00;1786919;79;21357;-56
2020/12/12 02:00:45;;;;;;;43.25;29.67;;;;;;;4.16;81.66;93443.08;1815673;79;21520;-52
2020/12/12 02:03:13;;;;;;;45.67;28.92;;;;;;;4.28;81.33;93443.63;1815721;79;21081;-52
2020/12/12 02:05:42;;;;;;;41.68;28.25;;;;;;;4.32;81.12;93436.13;1815844;79;21498;-52
2020/12/12 02:08:16;;;;;;;37.42;25.05;;;;;;;4.28;80.91;93440.91;1815572;78;21125;-52
2020/12/12 02:10:46;;;;;;;38.58;24.85;;;;;;;4.24;80.91;93442.99;1815627;78;21414;-53
2020/12/12 02:13:17;;;;;;;34.43;24.67;;;;;;;4.19;80.96;93440.83;1815709;79;21164;-51
2020/12/12 02:15:47;;;;;;;33.60;25.32;;;;;;;4.18;80.92;93437.95;1815725;79;21089;-54
2020/12/12 02:18:22;;;;;;;41.55;28.42;;;;;;;4.15;80.97;93438.83;1815751;78;21049;-54
2020/12/12 02:20:54;;;;;;;38.30;25.08;;;;;;;4.16;81.30;93438.99;1815680;79;21140;-52
2020/12/12 02:23:22;;;;;;;36.10;24.37;;;;;;;4.18;81.08;93437.95;1816037;79;22247;-52
2020/12/12 02:25:51;;;;;;;36.17;26.07;;;;;;;4.16;81.21;93436.86;1815853;79;21564;-52
2020/12/12 02:28:28;;;;;;;36.13;26.68;;;;;;;4.21;81.23;93441.77;1815749;79;21553;-51
2020/12/12 02:30:54;;;;;;;36.05;25.55;;;;;;;4.21;81.04;93435.71;1815303;79;21077;-52
2020/12/12 02:33:22;;;;;;;37.73;26.55;;;;;;;4.26;81.23;93431.06;1815704;78;21137;-53
2020/12/12 02:35:54;;;;;;;32.70;24.10;;;;;;;4.28;80.95;93431.39;1815619;78;22194;-55
2020/12/12 02:38:23;;;;;;;29.75;21.23;;;;;;;4.30;80.83;93437.18;1815588;79;21150;-52
2020/12/12 02:40:52;;;;;;;24.70;19.57;;;;;;;4.29;80.64;93427.49;1815641;79;21081;-51
2020/12/12 02:43:21;;;;;;;28.30;21.40;;;;;;;4.25;80.64;93439.07;1815754;79;21125;-54
2020/12/12 02:45:50;;;;;;;25.27;20.08;;;;;;;4.21;80.66;93435.71;1815733;79;21164;-54
2020/12/12 02:48:19;;;;;;;25.57;18.80;;;;;;;4.23;80.78;93437.39;1815641;78;21363;-53
2020/12/12 02:50:47;;;;;;;24.85;19.82;;;;;;;4.25;80.69;93439.07;1815433;79;21619;-51
2020/12/12 02:53:16;;;;;;;26.95;19.42;;;;;;;4.29;80.86;93435.66;1815725;78;21077;-54
2020/12/12 02:55:46;;;;;;;25.27;19.25;;;;;;;4.36;80.75;93436.78;1815664;79;21072;-51
2020/12/12 02:58:15;;;;;;;39.08;23.60;;;;;;;4.40;80.55;93433.33;1815574;79;20981;-55
2020/12/12 03:00:44;;;;;;;34.05;22.95;;;;;;;4.45;80.45;93430.04;1815511;79;22253;-54
2020/12/12 03:03:13;;;;;;;48.60;29.37;;;;;;;4.51;80.27;93428.30;1815715;78;21093;-54
2020/12/12 03:05:41;;;;;;;52.50;30.95;;;;;;;4.57;80.01;93431.98;1815622;78;21140;-54
2020/12/12 03:08:10;;;;;;;30.72;20.75;;;;;;;4.60;79.85;93433.81;1815702;78;21144;-52
2020/12/12 03:10:39;;;;;;;25.97;18.37;;;;;;;4.60;79.52;93431.09;1815594;79;21085;-56
2020/12/12 03:13:09;;;;;;;29.23;20.43;;;;;;;4.50;79.34;93434.95;1815741;79;21476;-54
2020/12/12 03:15:37;;;;;;;30.20;21.10;;;;;;;4.43;79.56;93434.42;1815677;78;21208;-54
2020/12/12 03:18:06;;;;;;;27.85;20.15;;;;;;;4.36;79.54;93436.78;1815836;79;21052;-51
2020/12/12 03:20:35;;;;;;;26.52;19.52;;;;;;;4.28;79.66;93436.83;1815631;79;21112;-53
2020/12/12 03:23:03;;;;;;;30.00;21.25;;;;;;;4.25;79.67;93429.55;1815573;79;21171;-54
2020/12/12 03:25:32;;;;;;;26.15;20.05;;;;;;;4.19;79.90;93431.31;1815723;79;22272;-52
2020/12/12 03:28:00;;;;;;;33.83;22.87;;;;;;;4.22;80.23;93418.80;1815530;79;21140;-54
2020/12/12 03:30:29;;;;;;;35.85;23.15;;;;;;;4.22;79.99;93415.46;1815529;78;21581;-55
2020/12/12 03:32:57;;;;;;;28.65;20.70;;;;;;;4.23;80.21;93431.95;1815458;79;21163;-54
2020/12/12 03:35:28;;;;;;;31.27;23.07;;;;;;;4.26;79.88;93436.51;1815668;79;21064;-55
2020/12/12 03:37:56;;;;;;;28.15;21.55;;;;;;;4.24;79.96;93429.39;1815527;78;21237;-52
2020/12/12 03:40:26;;;;;;;28.15;20.88;;;;;;;4.22;79.88;93433.77;1814127;79;21104;-53
2020/12/12 03:42:54;;;;;;;29.48;21.48;;;;;;;4.24;80.20;93430.75;1815578;79;21061;-53
2020/12/12 03:45:23;;;;;;;36.63;23.55;;;;;;;4.23;79.94;93433.92;1815656;78;21073;-51
2020/12/12 03:47:53;;;;;;;29.82;20.90;;;;;;;4.20;80.00;93433.45;1815703;79;21065;-53
2020/12/12 03:50:28;;;;;;;34.23;22.20;;;;;;;4.18;80.03;93427.66;1815676;78;22263;-53
2020/12/12 03:52:56;;;;;;;31.25;21.73;;;;;;;4.18;80.05;93424.93;1815569;79;21498;-53
2020/12/12 03:55:25;;;;;;;26.77;20.05;;;;;;;4.20;80.02;93426.02;1815652;78;21061;-53
2020/12/12 03:57:54;;;;;;;28.98;20.12;;;;;;;4.23;80.14;93423.78;1815671;79;21057;-52
2020/12/12 04:00:23;;;;;;;58.92;36.95;;;;;;;4.27;79.99;93418.98;1815518;79;21101;-53
2020/12/12 04:02:52;;;;;;;40.43;27.95;;;;;;;4.22;79.80;93416.08;1815582;79;22103;-51
2020/12/12 04:05:20;;;;;;;29.63;23.20;;;;;;;4.11;80.00;93416.42;1815588;78;21128;-51
2020/12/12 04:07:49;;;;;;;26.70;19.95;;;;;;;4.08;80.14;93411.83;1815687;79;21600;-52
2020/12/12 04:10:18;;;;;;;22.60;17.62;;;;;;;4.03;80.06;93417.83;1815533;79;21118;-51
2020/12/12 04:12:47;;;;;;;20.60;16.60;;;;;;;3.97;80.16;93412.79;1815590;79;21057;-52
2020/12/12 04:15:15;;;;;;;25.20;18.62;;;;;;;3.95;80.17;93411.11;1815570;79;21352;-52
2020/12/12 04:17:44;;;;;;;30.68;20.20;;;;;;;3.90;80.27;93408.17;1815581;79;21089;-52
2020/12/12 04:20:13;;;;;;;25.25;19.27;;;;;;;3.84;80.34;93406.59;1815561;79;21069;-52
2020/12/12 04:22:41;;;;;;;26.15;18.67;;;;;;;3.79;80.67;93415.31;1815589;79;21152;-53
2020/12/12 04:25:10;;;;;;;28.95;19.40;;;;;;;3.86;80.86;93418.41;1815643;79;21109;-52
2020/12/12 04:27:39;;;;;;;30.48;19.95;;;;;;;3.92;80.89;93411.98;1815606;78;22080;-51
2020/12/12 04:30:07;;;;;;;27.85;19.15;;;;;;;3.94;80.59;93412.89;1815560;79;21529;-51
2020/12/12 04:32:36;;;;;;;23.95;18.00;;;;;;;3.91;80.42;93398.81;1815449;78;21111;-52
2020/12/12 04:35:04;;;;;;;26.75;18.42;;;;;;;3.89;80.55;93401.95;1815515;78;21451;-53
2020/12/12 04:37:33;;;;;;;24.00;15.95;;;;;;;3.87;80.58;93404.36;1815374;79;21061;-51
2020/12/12 04:40:04;;;;;;;24.85;17.20;;;;;;;3.82;80.59;93403.55;1815686;79;21364;-54
2020/12/12 04:42:34;;;;;;;31.30;21.27;;;;;;;3.78;80.67;93399.41;1815737;78;21080;-52
2020/12/12 04:45:03;;;;;;;37.08;25.80;;;;;;;3.75;80.90;93399.70;1815894;79;21041;-52
2020/12/12 04:47:32;;;;;;;37.15;24.18;;;;;;;3.81;81.03;93403.39;1815795;79;21042;-52
2020/12/12 04:50:01;;;;;;;33.02;22.40;;;;;;;3.89;81.00;93404.67;1815802;78;21109;-52
2020/12/12 04:52:30;;;;;;;39.63;26.62;;;;;;;3.94;80.77;93405.51;1815775;79;21187;-51
2020/12/12 04:55:05;;;;;;;30.68;22.13;;;;;;;3.96;80.65;93404.47;1815695;78;21136;-49
2020/12/12 04:57:36;;;;;;;30.43;21.52;;;;;;;3.97;80.83;93400.55;1815744;78;21077;-51
2020/12/12 05:00:12;;;;;;;29.05;21.57;;;;;;;3.97;80.69;93404.62;1815818;78;21079;-51
2020/12/12 05:02:41;;;;;;;28.45;19.80;;;;;;;4.03;80.71;93402.87;1815858;79;21140;-52
2020/12/12 05:05:10;;;;;;;26.97;20.55;;;;;;;4.07;80.35;93400.79;1815833;79;22265;-52
2020/12/12 05:07:39;;;;;;;31.20;22.58;;;;;;;4.06;80.16;93403.34;1815816;79;21493;-52
2020/12/12 05:10:07;;;;;;;32.28;22.48;;;;;;;4.08;80.33;93400.95;1815761;79;21204;-52
2020/12/12 05:12:36;;;;;;;40.38;24.12;;;;;;;4.03;80.02;93405.59;1815782;79;21049;-51
2020/12/12 05:15:04;;;;;;;36.35;24.85;;;;;;;3.93;80.08;93412.73;1787039;79;21079;-52
2020/12/12 05:17:33;;;;;;;29.50;20.90;;;;;;;3.88;80.25;93418.12;1815827;79;22303;-51
2020/12/12 05:20:02;;;;;;;33.98;23.67;;;;;;;3.83;80.20;93419.28;1815666;79;21522;-52
2020/12/12 05:22:34;;;;;;;39.48;25.80;;;;;;;3.75;80.21;93416.02;1815854;78;21573;-52
2020/12/12 05:25:01;;;;;;;34.13;23.18;;;;;;;3.73;80.79;93419.00;1815736;79;21112;-51
2020/12/12 05:27:29;;;;;;;32.80;22.60;;;;;;;3.81;81.02;93423.79;1815749;79;21132;-53
2020/12/12 05:29:59;;;;;;;37.33;24.85;;;;;;;3.91;80.95;93429.48;1815769;78;21362;-53
2020/12/12 05:32:27;;;;;;;48.52;29.80;;;;;;;4.00;80.62;93429.59;1815677;79;21208;-51
2020/12/12 05:34:57;;;;;;;50.45;30.52;;;;;;;3.98;80.24;93421.11;1815875;78;21575;-52
2020/12/12 05:37:26;;;;;;;51.30;32.00;;;;;;;3.91;80.21;93424.66;1815660;78;21069;-53
2020/12/12 05:39:56;;;;;;;39.58;25.65;;;;;;;3.92;80.48;93422.87;1815789;79;21048;-53
2020/12/12 05:42:24;;;;;;;37.42;24.98;;;;;;;3.92;80.21;93422.87;1737678;79;21509;-52
2020/12/12 05:44:53;;;;;;;36.45;23.60;;;;;;;3.88;80.14;93427.64;1815770;79;21072;-52
2020/12/12 05:47:22;;;;;;;31.37;20.05;;;;;;;3.81;80.27;93427.09;1815764;78;21147;-52
2020/12/12 05:49:50;;;;;;;29.45;19.87;;;;;;;3.75;80.34;93424.18;1815731;78;21144;-53
2020/12/12 05:52:19;;;;;;;32.20;22.05;;;;;;;3.70;80.48;93426.06;1815745;78;21124;-53
2020/12/12 05:54:49;;;;;;;32.73;19.95;;;;;;;3.64;80.53;93427.81;1787366;79;21366;-52
2020/12/12 05:57:17;;;;;;;29.92;20.80;;;;;;;3.62;80.81;93432.92;1786912;79;21159;-52
2020/12/12 05:59:46;;;;;;;29.87;20.62;;;;;;;3.62;80.88;93431.56;1815849;78;21485;-53
2020/12/12 06:02:16;;;;;;;30.45;19.62;;;;;;;3.64;80.85;93429.17;1815741;78;21065;-51
2020/12/12 06:04:52;;;;;;;24.25;18.23;;;;;;;3.63;80.81;93432.31;1815854;78;21085;-52
2020/12/12 06:07:28;;;;;;;37.48;21.75;;;;;;;3.58;80.76;93426.84;1815763;78;21354;-53
2020/12/12 06:10:10;;;;;;;36.75;24.15;;;;;;;3.56;81.03;93428.46;1815695;79;21062;-54
2020/12/12 06:12:38;;;;;;;48.05;30.92;;;;;;;3.64;81.05;93433.25;1815264;79;21191;-52
2020/12/12 06:15:06;;;;;;;55.00;34.33;;;;;;;3.69;81.02;93418.36;1815721;78;21089;-51
2020/12/12 06:18:06;;;;;;;53.10;32.65;;;;;;;3.70;80.91;93415.19;1815812;79;21069;-52
2020/12/12 06:20:35;;;;;;;54.40;30.88;;;;;;;3.70;80.91;93423.34;1815894;78;21923;-54
2020/12/12 06:23:03;;;;;;;78.60;36.77;;;;;;;3.68;81.04;93424.38;1815653;78;21077;-53
2020/12/12 06:25:32;;;;;;;43.20;27.10;;;;;;;3.67;80.98;93430.27;1815778;79;21541;-54
2020/12/12 06:28:00;;;;;;;33.70;21.50;;;;;;;3.64;80.98;93423.73;1786659;79;21069;-56
2020/12/12 06:30:29;;;;;;;32.40;22.80;;;;;;;3.63;80.96;93412.70;1815699;79;21116;-55
2020/12/12 06:33:03;;;;;;;30.35;20.05;;;;;;;3.62;81.07;93415.25;1815730;79;21617;-54
2020/12/12 06:35:34;;;;;;;31.00;22.27;;;;;;;3.63;81.14;93424.93;1815767;79;21104;-53
2020/12/12 06:38:28;;;;;;;30.55;19.90;;;;;;;3.64;81.12;93425.67;1815687;78;21049;-53
2020/12/12 06:40:58;;;;;;;25.35;17.77;;;;;;;3.63;81.04;93429.02;1815985;79;21053;-53
2020/12/12 06:43:36;;;;;;;25.10;18.75;;;;;;;3.57;81.00;93429.40;1816278;79;21088;-54
2020/12/12 06:46:06;;;;;;;24.52;18.98;;;;;;;3.56;81.07;93429.23;1816188;79;21190;-53
2020/12/12 06:48:35;;;;;;;34.10;22.90;;;;;;;3.60;81.05;93430.47;1816117;79;21088;-54
2020/12/12 06:51:03;;;;;;;28.40;21.00;;;;;;;3.62;81.00;93426.71;1816257;79;21475;-52
2020/12/12 06:53:34;;;;;;;33.23;22.77;;;;;;;3.63;80.90;93429.02;1816064;79;21089;-54
2020/12/12 06:56:15;;;;;;;24.25;17.77;;;;;;;3.61;81.05;93423.25;1816245;79;21501;-53
2020/12/12 06:58:43;;;;;;;33.60;24.87;;;;;;;3.61;81.15;93421.89;1816277;79;22238;-54
2020/12/12 07:04:10;;;;;;;47.98;34.85;;;;;;;3.86;81.49;93423.23;1888643;76;22221;-55
2020/12/12 07:06:39;;;;;;;51.20;35.25;;;;;;;3.90;81.17;93430.67;1775381;80;21480;-53
2020/12/12 07:09:09;;;;;;;45.80;31.00;;;;;;;3.92;81.29;93426.95;1773908;81;21387;-54
2020/12/12 07:11:37;;;;;;;53.98;35.35;;;;;;;4.00;81.19;93426.09;1775332;80;21492;-54
2020/12/12 07:14:06;;;;;;;85.55;46.58;;;;;;;4.02;80.87;93428.55;1773904;81;20993;-54
2020/12/12 07:16:36;;;;;;;51.90;35.30;;;;;;;4.01;80.87;93428.39;1775272;80;21191;-54
2020/12/12 07:19:04;;;;;;;49.35;36.03;;;;;;;4.02;80.92;93428.55;1746126;81;21115;-53
2020/12/12 07:21:38;;;;;;;46.33;34.27;;;;;;;4.02;80.86;93428.55;1775281;80;21247;-54
2020/12/12 07:24:08;;;;;;;52.30;37.23;;;;;;;3.98;80.96;93425.19;1773846;81;21100;-54
2020/12/12 07:26:41;;;;;;;55.23;39.63;;;;;;;3.95;81.16;93423.94;1775314;80;21063;-55
2020/12/12 07:29:14;;;;;;;62.40;38.00;;;;;;;3.96;81.23;93432.26;1752476;81;21651;-53
2020/12/12 07:31:44;;;;;;;59.48;37.13;;;;;;;3.97;81.29;93429.11;1775306;80;21233;-54
2020/12/12 07:34:19;;;;;;;53.80;32.58;;;;;;;4.06;81.22;93427.84;1694710;82;21215;-56
2020/12/12 07:37:02;;;;;;;49.23;31.10;;;;;;;4.19;81.21;93437.34;1775223;80;21560;-56
2020/12/12 07:39:42;;;;;;;35.35;24.82;;;;;;;4.30;81.20;93427.66;1680151;82;21609;-53
2020/12/12 07:42:13;;;;;;;29.40;20.45;;;;;;;4.45;80.82;93432.77;1775252;80;21139;-54
2020/12/12 07:44:47;;;;;;;32.10;22.40;;;;;;;4.54;80.32;93429.36;1743308;82;21509;-52
2020/12/12 07:47:15;;;;;;;37.38;26.30;;;;;;;4.51;79.91;93435.11;1775335;80;22222;-52
2020/12/12 07:49:43;;;;;;;36.80;23.40;;;;;;;4.50;80.04;93430.86;1743112;82;21193;-54
2020/12/12 07:52:13;;;;;;;34.95;23.83;;;;;;;4.52;79.80;93428.45;1775307;80;21513;-56
2020/12/12 07:54:56;;;;;;;48.83;31.37;;;;;;;4.49;79.81;93437.52;1743115;81;21143;-53
2020/12/12 07:57:21;;;;;;;41.55;25.35;;;;;;;4.48;79.86;93431.91;1775758;79;21070;-55
2020/12/12 07:59:52;;;;;;;43.48;26.85;;;;;;;4.45;79.66;93429.30;1775323;80;22092;-55
2020/12/12 08:02:24;;;;;;;47.80;32.63;;;;;;;4.37;79.73;93435.58;1715791;82;21222;-53
2020/12/12 08:05:04;;;;;;;48.47;30.60;;;;;;;4.35;79.78;93430.39;1775558;80;21056;-56
2020/12/12 08:07:40;;;;;;;41.90;28.00;;;;;;;4.41;79.78;93424.58;1743323;82;21143;-56
2020/12/12 08:10:11;;;;;;;42.85;29.23;;;;;;;4.47;79.67;93429.03;1771219;80;21481;-55
2020/12/12 08:12:42;;;;;;;95.97;52.15;;;;;;;4.46;79.50;93428.84;1743146;82;21299;-55
2020/12/12 08:15:16;;;;;;;47.70;28.55;;;;;;;4.44;79.44;93438.05;1693247;82;21100;-56
2020/12/12 08:17:44;;;;;;;;;;;;;;;4.48;79.47;93440.08;1745374;82;21572;-55
2020/12/12 08:20:23;;;;;;;67.27;32.58;;;;;;;4.49;79.20;93438.87;1742474;82;20494;-54
2020/12/12 08:22:48;;;;;;;56.05;29.82;;;;;;;4.45;79.19;93438.20;1742150;82;21080;-56
2020/12/12 08:25:20;;;;;;;43.08;27.17;;;;;;;4.46;79.24;93437.63;1774871;80;21129;-55
2020/12/12 08:27:51;;;;;;;39.88;27.82;;;;;;;4.48;79.14;93437.35;1742740;81;21076;-54
2020/12/12 08:30:19;;;;;;;50.55;33.50;;;;;;;4.47;79.10;93439.92;1750062;80;21071;-54
2020/12/12 08:32:48;;;;;;;64.10;38.88;;;;;;;4.45;79.25;93436.84;1774869;80;21500;-54
2020/12/12 08:35:23;;;;;;;52.70;31.45;;;;;;;4.45;79.26;93440.93;1742745;82;21804;-55
2020/12/12 08:38:08;;;;;;;45.85;28.90;;;;;;;4.47;79.47;93445.95;1774760;80;21292;-53
2020/12/12 08:40:46;;;;;;;48.30;34.80;;;;;;;4.51;79.42;93431.02;1742615;82;21135;-54
2020/12/12 08:43:17;;;;;;;58.52;39.48;;;;;;;4.60;79.36;93429.73;1774647;80;21565;-55
2020/12/12 08:45:59;;;;;;;97.62;57.50;;;;;;;4.76;79.36;93428.82;1742698;82;21120;-54
2020/12/12 08:48:37;;;;;;;48.02;31.85;;;;;;;4.90;79.04;93433.17;1774830;80;21076;-53
2020/12/12 08:51:08;;;;;;;49.20;31.97;;;;;;;4.95;78.79;93425.78;1715316;82;21195;-54
2020/12/12 08:53:41;;;;;;;49.85;33.30;;;;;;;4.98;78.55;93426.25;1749419;80;21134;-54
2020/12/12 08:56:27;;;;;;;51.13;33.58;;;;;;;4.96;78.44;93431.39;1774686;80;21509;-54
2020/12/12 08:59:06;;;;;;;46.77;33.63;;;;;;;4.98;78.48;93433.06;1742624;82;21133;-54
2020/12/12 09:01:42;;;;;;;47.78;31.80;;;;;;;5.07;78.48;93429.05;1774649;80;21144;-54
2020/12/12 09:04:15;;;;;;;70.72;43.65;;;;;;;5.17;78.58;93430.63;1742474;82;21214;-54
2020/12/12 09:06:49;;;;;;;;;;;;;;;5.23;78.30;93426.14;1777195;80;21151;-54
2020/12/12 09:09:29;;;;;;;45.85;30.52;;;;;;;5.25;78.22;93421.00;1774656;80;20491;-55
2020/12/12 09:12:07;;;;;;;48.13;28.95;;;;;;;5.20;78.29;93426.27;1742609;82;21065;-55
2020/12/12 09:14:44;;;;;;;59.30;32.80;;;;;;;5.18;78.36;93415.05;1774588;80;21155;-54
2020/12/12 09:17:15;;;;;;;35.52;23.30;;;;;;;5.14;78.28;93409.71;1742599;82;22348;-54
2020/12/12 09:19:45;;;;;;;31.90;22.07;;;;;;;5.12;78.46;93410.77;1749650;80;21094;-53
2020/12/12 09:22:14;;;;;;;34.88;21.80;;;;;;;5.08;78.44;93408.00;1774527;80;21159;-53
2020/12/12 09:24:42;;;;;;;34.20;21.40;;;;;;;5.05;78.59;93403.44;1742571;82;21151;-55
2020/12/12 09:27:14;;;;;;;29.20;20.30;;;;;;;5.08;78.50;93401.96;1774600;79;21116;-56
2020/12/12 09:29:43;;;;;;;40.28;25.75;;;;;;;5.08;78.53;93399.83;1742585;81;22057;-53
2020/12/12 09:32:11;;;;;;;35.13;24.05;;;;;;;5.05;78.46;93397.41;1761317;81;21636;-53
2020/12/12 09:34:40;;;;;;;39.75;24.82;;;;;;;5.10;78.61;93398.19;1774581;80;21059;-53
2020/12/12 09:37:08;;;;;;;40.83;24.65;;;;;;;5.13;78.34;93395.93;1742604;82;21056;-54
2020/12/12 09:39:37;;;;;;;28.45;20.17;;;;;;;5.13;78.44;93394.56;1761401;81;21071;-54
2020/12/12 09:42:06;;;;;;;26.73;19.12;;;;;;;5.20;78.38;93386.73;1774618;80;21208;-55
2020/12/12 09:44:36;;;;;;;28.60;19.77;;;;;;;5.28;78.22;93383.30;1742478;82;21179;-55
2020/12/12 09:47:05;;;;;;;29.50;20.50;;;;;;;5.34;77.88;93388.33;1774639;80;21001;-57
2020/12/12 09:49:35;;;;;;;29.37;21.42;;;;;;;5.33;77.71;93386.81;1742612;82;21135;-54
2020/12/12 09:52:04;;;;;;;24.23;18.05;;;;;;;5.30;77.75;93392.56;1774719;80;21155;-54
2020/12/12 09:54:35;;;;;;;30.10;19.95;;;;;;;5.28;77.65;93390.86;1742578;82;21214;-56
2020/12/12 09:57:05;;;;;;;26.90;17.55;;;;;;;5.24;77.73;93377.97;1776989;79;21177;-54
2020/12/12 09:59:39;;;;;;;26.75;19.27;;;;;;;5.21;77.77;93380.85;1652634;85;21125;-53
2020/12/12 10:02:09;;;;;;;26.95;19.17;;;;;;;5.18;77.78;93372.80;1674058;85;21132;-56
2020/12/12 10:04:42;;;;;;;27.17;20.65;;;;;;;5.14;77.79;93378.98;1673709;85;21112;-53
2020/12/12 10:07:22;;;;;;;25.43;19.85;;;;;;;5.10;77.92;93375.02;1674127;85;21212;-55
2020/12/12 10:10:03;;;;;;;34.13;21.55;;;;;;;5.10;78.15;93373.66;1652306;85;21601;-54
2020/12/12 10:12:35;;;;;;;32.58;21.82;;;;;;;5.13;78.17;93374.12;1674188;85;21151;-59
2020/12/12 10:15:07;;;;;;;28.20;20.23;;;;;;;5.16;78.17;93371.86;1674132;85;21583;-54
2020/12/12 10:17:37;;;;;;;31.87;23.50;;;;;;;5.18;78.10;93371.44;1698980;82;21149;-53
2020/12/12 10:20:06;;;;;;;47.08;25.02;;;;;;;5.15;77.98;93369.60;1761230;81;21201;-55
2020/12/12 10:22:36;;;;;;;49.25;28.10;;;;;;;5.13;78.16;93375.48;1774563;80;21131;-54
2020/12/12 10:25:04;;;;;;;46.85;24.95;;;;;;;5.19;77.99;93375.06;1742584;82;21115;-55
2020/12/12 10:27:34;;;;;;;51.33;31.85;;;;;;;5.25;78.02;93372.67;1774622;80;21207;-53
2020/12/12 10:30:08;;;;;;;57.95;31.85;;;;;;;5.28;77.81;93364.22;1742651;82;21115;-54
2020/12/12 10:32:37;;;;;;;51.68;28.00;;;;;;;5.27;77.65;93372.25;1774648;80;21266;-54
2020/12/12 10:35:11;;;;;;;36.33;22.65;;;;;;;5.22;77.67;93359.20;1742505;82;21156;-55
2020/12/12 10:37:46;;;;;;;34.45;23.00;;;;;;;5.19;77.80;93360.69;1777193;80;21046;-54
2020/12/12 10:43:04;;;;;;;52.23;29.57;;;;;;;5.30;77.99;93363.17;1888598;76;22832;-54
2020/12/12 10:45:36;;;;;;;68.17;34.43;;;;;;;5.30;78.08;93358.48;1850046;77;21256;-55
2020/12/12 10:48:23;;;;;;;54.48;28.55;;;;;;;5.35;77.77;93362.58;1820522;77;21378;-53
2020/12/12 10:51:03;;;;;;;59.85;30.88;;;;;;;5.33;77.83;93360.31;1849869;77;20901;-57
2020/12/12 10:53:39;;;;;;;62.53;29.50;;;;;;;5.32;77.77;93360.16;1820319;77;20996;-55
2020/12/12 10:56:22;;;;;;;51.60;29.25;;;;;;;5.36;77.67;93362.73;1849932;77;20972;-54
2020/12/12 10:58:52;;;;;;;50.75;33.92;;;;;;;5.38;77.63;93353.53;1849195;77;21491;-53
2020/12/12 11:01:25;;;;;;;34.23;22.65;;;;;;;5.45;77.53;93348.54;1849350;77;20977;-53
2020/12/12 11:03:54;;;;;;;33.08;22.58;;;;;;;5.49;77.39;93357.36;1849830;77;21083;-55
2020/12/12 11:06:23;;;;;;;28.55;18.87;;;;;;;5.47;77.37;93351.60;1849851;77;21020;-54
2020/12/12 11:08:52;;;;;;;29.00;21.12;;;;;;;5.49;77.35;93357.95;1849859;77;21079;-56
2020/12/12 11:11:23;;;;;;;27.00;20.82;;;;;;;5.49;77.00;93345.09;1849546;77;21146;-56
2020/12/12 11:13:58;;;;;;;23.80;17.42;;;;;;;5.47;77.03;93347.52;1849804;77;21228;-55
2020/12/12 11:16:33;;;;;;;30.95;21.77;;;;;;;5.52;76.99;93340.69;1849793;77;21059;-54
2020/12/12 11:19:03;;;;;;;34.55;22.13;;;;;;;5.53;77.01;93339.48;1849882;77;21061;-55
2020/12/12 11:21:33;;;;;;;39.95;26.62;;;;;;;5.58;76.89;93338.30;1849845;77;21040;-54
2020/12/12 11:24:05;;;;;;;38.17;24.45;;;;;;;5.58;76.93;93343.01;1849931;77;21123;-54
2020/12/12 11:26:35;;;;;;;37.50;23.75;;;;;;;5.59;76.87;93341.80;1819891;77;21790;-53
2020/12/12 11:29:08;;;;;;;46.35;27.67;;;;;;;5.56;76.79;93337.22;1828924;77;21552;-53
2020/12/12 11:31:40;;;;;;;41.58;25.60;;;;;;;5.53;76.79;93342.98;1787619;79;21088;-54
2020/12/12 11:47:46;;;;;;;18.62;15.03;;;;;;;5.47;76.03;93346.15;1807181;79;21512;-56
2020/12/12 11:50:20;;;;;;;21.77;14.50;;;;;;;5.48;75.99;93345.53;1807239;79;21468;-55
2020/12/12 11:52:54;;;;;;;27.62;17.00;;;;;;;5.44;75.85;93351.73;1753227;79;21556;-53
2020/12/12 11:55:22;;;;;;;30.80;19.00;;;;;;;5.34;76.00;93354.24;1807080;79;21871;-55
2020/12/12 11:57:54;;;;;;;24.47;18.30;;;;;;;5.26;76.20;93351.02;1807250;78;21048;-54
2020/12/12 12:00:25;;;;;;;25.68;18.17;;;;;;;5.22;76.44;93355.70;1807151;79;21140;-55
2020/12/12 12:02:53;;;;;;;20.30;16.17;;;;;;;5.21;76.41;93352.82;1805004;79;21135;-55